sensor_id;sensor_type;location;lat;lon;timestamp;pressure;altitude;pressure_sealevel;temperature;humidity
65880;BME280;52661;51.364;6.054;2023-01-28T00:01:36;102501.25;;;2.84;100.00
65880;BME280;52661;51.364;6.054;2023-01-28T00:04:01;102495.09;;;2.83;100.00
65880;BME280;52661;51.364;6.054;2023-01-28T00:06:27;102499.97;;;2.81;100.00
65880;BME280;52661;51.364;6.054;2023-01-28T00:08:52;102508.00;;;2.81;100.00
65880;BME280;52661;51.364;6.054;2023-01-28T00:11:20;102496.47;;;2.81;100.00
65880;BME280;52661;51.364;6.054;2023-01-28T00:13:50;102492.78;;;2.77;100.00
65880;BME280;52661;51.364;6.054;2023-01-28T00:16:16;102496.53;;;2.76;100.00
65880;BME280;52661;51.364;6.054;2023-01-28T00:18:42;102498.94;;;2.77;100.00
65880;BME280;52661;51.364;6.054;2023-01-28T00:21:10;102489.50;;;2.80;100.00
65880;BME280;52661;51.364;6.054;2023-01-28T00:23:37;102494.59;;;2.81;100.00
65880;BME280;52661;51.364;6.054;2023-01-28T00:26:06;102484.16;;;2.80;100.00
65880;BME280;52661;51.364;6.054;2023-01-28T00:28:32;102477.50;;;2.77;100.00
65880;BME280;52661;51.364;6.054;2023-01-28T00:30:57;102485.81;;;2.76;100.00
65880;BME280;52661;51.364;6.054;2023-01-28T00:33:23;102477.56;;;2.72;100.00
65880;BME280;52661;51.364;6.054;2023-01-28T00:35:58;102484.53;;;2.73;100.00
65880;BME280;52661;51.364;6.054;2023-01-28T00:38:24;102479.09;;;2.78;100.00
65880;BME280;52661;51.364;6.054;2023-01-28T00:40:50;102487.16;;;2.78;100.00
65880;BME280;52661;51.364;6.054;2023-01-28T00:43:15;102487.41;;;2.77;100.00
65880;BME280;52661;51.364;6.054;2023-01-28T00:45:40;102490.91;;;2.77;100.00
65880;BME280;52661;51.364;6.054;2023-01-28T00:48:06;102487.91;;;2.79;100.00
65880;BME280;52661;51.364;6.054;2023-01-28T00:50:31;102489.03;;;2.78;100.00
65880;BME280;52661;51.364;6.054;2023-01-28T00:52:56;102489.63;;;2.75;100.00
65880;BME280;52661;51.364;6.054;2023-01-28T00:55:22;102486.94;;;2.75;100.00
65880;BME280;52661;51.364;6.054;2023-01-28T00:57:47;102488.81;;;2.74;100.00
65880;BME280;52661;51.364;6.054;2023-01-28T01:00:13;102477.50;;;2.77;100.00
65880;BME280;52661;51.364;6.054;2023-01-28T01:02:39;102486.63;;;2.76;100.00
65880;BME280;52661;51.364;6.054;2023-01-28T01:05:04;102493.66;;;2.72;100.00
65880;BME280;52661;51.364;6.054;2023-01-28T01:07:30;102499.59;;;2.69;100.00
65880;BME280;52661;51.364;6.054;2023-01-28T01:10:09;102500.41;;;2.70;100.00
65880;BME280;52661;51.364;6.054;2023-01-28T01:12:35;102503.09;;;2.70;100.00
65880;BME280;52661;51.364;6.054;2023-01-28T01:15:00;102500.69;;;2.68;100.00
65880;BME280;52661;51.364;6.054;2023-01-28T01:17:29;102504.16;;;2.69;100.00
65880;BME280;52661;51.364;6.054;2023-01-28T01:19:54;102512.72;;;2.71;100.00
65880;BME280;52661;51.364;6.054;2023-01-28T01:22:20;102501.91;;;2.76;100.00
65880;BME280;52661;51.364;6.054;2023-01-28T01:24:46;102518.59;;;2.73;100.00
65880;BME280;52661;51.364;6.054;2023-01-28T01:27:12;102514.81;;;2.74;100.00
65880;BME280;52661;51.364;6.054;2023-01-28T01:29:37;102510.03;;;2.71;100.00
65880;BME280;52661;51.364;6.054;2023-01-28T01:32:03;102510.03;;;2.71;100.00
65880;BME280;52661;51.364;6.054;2023-01-28T01:34:29;102513.00;;;2.69;100.00
65880;BME280;52661;51.364;6.054;2023-01-28T01:36:54;102519.44;;;2.68;100.00
65880;BME280;52661;51.364;6.054;2023-01-28T01:39:19;102509.25;;;2.70;100.00
65880;BME280;52661;51.364;6.054;2023-01-28T01:41:45;102509.25;;;2.70;100.00
65880;BME280;52661;51.364;6.054;2023-01-28T01:47:15;102508.22;;;2.66;100.00
65880;BME280;52661;51.364;6.054;2023-01-28T01:49:41;102509.53;;;2.69;100.00
65880;BME280;52661;51.364;6.054;2023-01-28T01:52:14;102508.72;;;2.68;100.00
65880;BME280;52661;51.364;6.054;2023-01-28T01:54:46;102509.31;;;2.65;100.00
65880;BME280;52661;51.364;6.054;2023-01-28T01:57:25;102508.88;;;2.58;100.00
65880;BME280;52661;51.364;6.054;2023-01-28T01:59:53;102501.16;;;2.57;100.00
65880;BME280;52661;51.364;6.054;2023-01-28T02:02:19;102507.59;;;2.56;100.00
65880;BME280;52661;51.364;6.054;2023-01-28T02:04:44;102515.03;;;2.59;100.00
65880;BME280;52661;51.364;6.054;2023-01-28T02:07:12;102505.72;;;2.56;100.00
65880;BME280;52661;51.364;6.054;2023-01-28T02:09:39;102511.66;;;2.53;100.00
65880;BME280;52661;51.364;6.054;2023-01-28T02:12:15;102524.31;;;2.47;100.00
65880;BME280;52661;51.364;6.054;2023-01-28T02:14:45;102523.22;;;2.48;100.00
65880;BME280;52661;51.364;6.054;2023-01-28T02:17:12;102532.13;;;2.44;100.00
65880;BME280;52661;51.364;6.054;2023-01-28T02:25:14;102529.47;;;2.44;100.00
65880;BME280;52661;51.364;6.054;2023-01-28T02:30:25;102531.34;;;2.43;100.00
65880;BME280;52661;51.364;6.054;2023-01-28T02:32:56;102534.09;;;2.38;100.00
65880;BME280;52661;51.364;6.054;2023-01-28T02:35:37;102531.34;;;2.43;100.00
65880;BME280;52661;51.364;6.054;2023-01-28T02:38:28;102529.50;;;2.39;100.00
65880;BME280;52661;51.364;6.054;2023-01-28T02:41:14;102533.56;;;2.36;100.00
65880;BME280;52661;51.364;6.054;2023-01-28T02:43:44;102520.69;;;2.38;100.00
65880;BME280;52661;51.364;6.054;2023-01-28T02:46:20;102523.16;;;2.35;100.00
65880;BME280;52661;51.364;6.054;2023-01-28T02:49:08;102525.09;;;2.29;100.00
65880;BME280;52661;51.364;6.054;2023-01-28T02:55:17;102529.38;;;2.30;100.00
65880;BME280;52661;51.364;6.054;2023-01-28T03:03:25;102526.69;;;2.30;100.00
65880;BME280;52661;51.364;6.054;2023-01-28T03:05:56;102524.03;;;2.30;100.00
65880;BME280;52661;51.364;6.054;2023-01-28T03:08:44;102527.50;;;2.31;100.00
65880;BME280;52661;51.364;6.054;2023-01-28T03:11:31;102529.66;;;2.29;100.00
65880;BME280;52661;51.364;6.054;2023-01-28T03:14:18;102529.97;;;2.27;100.00
65880;BME280;52661;51.364;6.054;2023-01-28T03:17:04;102529.44;;;2.25;100.00
65880;BME280;52661;51.364;6.054;2023-01-28T03:19:50;102527.06;;;2.24;100.00
65880;BME280;52661;51.364;6.054;2023-01-28T03:22:36;102532.34;;;2.29;100.00
65880;BME280;52661;51.364;6.054;2023-01-28T03:25:23;102531.25;;;2.30;100.00
65880;BME280;52661;51.364;6.054;2023-01-28T03:28:13;102533.94;;;2.30;100.00
65880;BME280;52661;51.364;6.054;2023-01-28T03:31:05;102532.97;;;2.21;100.00
65880;BME280;52661;51.364;6.054;2023-01-28T03:33:50;102539.66;;;2.23;100.00
65880;BME280;52661;51.364;6.054;2023-01-28T03:36:36;102542.09;;;2.20;100.00
65880;BME280;52661;51.364;6.054;2023-01-28T03:39:26;102545.59;;;2.20;100.00
65880;BME280;52661;51.364;6.054;2023-01-28T03:44:26;102548.91;;;2.12;100.00
65880;BME280;52661;51.364;6.054;2023-01-28T03:47:11;102550.78;;;2.12;100.00
65880;BME280;52661;51.364;6.054;2023-01-28T03:49:44;102550.91;;;2.02;100.00
65880;BME280;52661;51.364;6.054;2023-01-28T03:52:11;102549.03;;;2.02;100.00
65880;BME280;52661;51.364;6.054;2023-01-28T03:54:37;102561.63;;;2.02;100.00
65880;BME280;52661;51.364;6.054;2023-01-28T03:57:03;102545.53;;;2.02;100.00
65880;BME280;52661;51.364;6.054;2023-01-28T03:59:30;102550.94;;;1.96;100.00
65880;BME280;52661;51.364;6.054;2023-01-28T04:01:56;102538.09;;;1.98;100.00
65880;BME280;52661;51.364;6.054;2023-01-28T04:04:21;102545.53;;;2.02;100.00
65880;BME280;52661;51.364;6.054;2023-01-28T04:06:53;102549.56;;;1.99;100.00
65880;BME280;52661;51.364;6.054;2023-01-28T04:09:22;102551.25;;;1.95;100.00
65880;BME280;52661;51.364;6.054;2023-01-28T04:11:48;102556.03;;;1.98;100.00
65880;BME280;52661;51.364;6.054;2023-01-28T04:14:15;102556.03;;;1.98;100.00
65880;BME280;52661;51.364;6.054;2023-01-28T04:16:41;102564.06;;;1.98;100.00
65880;BME280;52661;51.364;6.054;2023-01-28T04:19:07;102565.72;;;1.94;100.00
65880;BME280;52661;51.364;6.054;2023-01-28T04:21:33;102558.81;;;1.88;100.00
65880;BME280;52661;51.364;6.054;2023-01-28T04:23:58;102562.50;;;1.92;100.00
65880;BME280;52661;51.364;6.054;2023-01-28T04:26:24;102562.22;;;1.93;100.00
65880;BME280;52661;51.364;6.054;2023-01-28T04:28:49;102566.22;;;1.96;100.00
65880;BME280;52661;51.364;6.054;2023-01-28T04:31:14;102564.06;;;1.98;100.00
65880;BME280;52661;51.364;6.054;2023-01-28T04:33:40;102565.41;;;1.95;100.00
65880;BME280;52661;51.364;6.054;2023-01-28T04:36:05;102568.63;;;1.97;100.00
65880;BME280;52661;51.364;6.054;2023-01-28T04:38:30;102563.84;;;1.94;100.00
65880;BME280;52661;51.364;6.054;2023-01-28T04:40:56;102565.81;;;1.84;100.00
65880;BME280;52661;51.364;6.054;2023-01-28T04:43:21;102562.56;;;1.87;100.00
65880;BME280;52661;51.364;6.054;2023-01-28T04:45:47;102562.50;;;1.92;100.00
65880;BME280;52661;51.364;6.054;2023-01-28T04:48:13;102568.97;;;1.91;100.00
65880;BME280;52661;51.364;6.054;2023-01-28T04:50:38;102555.22;;;1.97;100.00
65880;BME280;52661;51.364;6.054;2023-01-28T04:53:04;102561.88;;;2.00;100.00
65880;BME280;52661;51.364;6.054;2023-01-28T04:55:29;102565.09;;;2.02;100.00
65880;BME280;52661;51.364;6.054;2023-01-28T04:57:54;102561.72;;;1.91;100.00
65880;BME280;52661;51.364;6.054;2023-01-28T05:00:20;102562.72;;;1.95;100.00
65880;BME280;52661;51.364;6.054;2023-01-28T05:02:45;102563.75;;;1.99;100.00
65880;BME280;52661;51.364;6.054;2023-01-28T05:05:11;102562.47;;;1.97;100.00
65880;BME280;52661;51.364;6.054;2023-01-28T05:07:36;102556.84;;;1.98;100.00
65880;BME280;52661;51.364;6.054;2023-01-28T05:10:01;102557.31;;;2.01;100.00
65880;BME280;52661;51.364;6.054;2023-01-28T05:12:27;102565.63;;;1.99;100.00
65880;BME280;52661;51.364;6.054;2023-01-28T05:14:52;102558.97;;;1.96;100.00
65880;BME280;52661;51.364;6.054;2023-01-28T05:17:17;102549.19;;;1.87;100.00
65880;BME280;52661;51.364;6.054;2023-01-28T05:19:43;102562.63;;;1.82;100.00
65880;BME280;52661;51.364;6.054;2023-01-28T05:22:10;102557.00;;;1.83;100.00
65880;BME280;52661;51.364;6.054;2023-01-28T05:24:35;102554.09;;;1.80;100.00
65880;BME280;52661;51.364;6.054;2023-01-28T05:27:01;102558.59;;;1.84;100.00
65880;BME280;52661;51.364;6.054;2023-01-28T05:29:26;102556.75;;;1.80;100.00
65880;BME280;52661;51.364;6.054;2023-01-28T05:31:51;102565.63;;;1.75;100.00
65880;BME280;52661;51.364;6.054;2023-01-28T05:34:16;102570.19;;;1.75;100.00
65880;BME280;52661;51.364;6.054;2023-01-28T05:36:42;102571.22;;;1.79;100.00
65880;BME280;52661;51.364;6.054;2023-01-28T05:39:07;102578.22;;;1.75;100.00
65880;BME280;52661;51.364;6.054;2023-01-28T05:41:33;102575.84;;;1.73;100.00
65880;BME280;52661;51.364;6.054;2023-01-28T05:43:59;102569.91;;;1.76;100.00
65880;BME280;52661;51.364;6.054;2023-01-28T05:46:24;102569.38;;;1.74;100.00
65880;BME280;52661;51.364;6.054;2023-01-28T05:48:50;102575.28;;;1.76;100.00
65880;BME280;52661;51.364;6.054;2023-01-28T05:51:15;102576.84;;;1.77;100.00
65880;BME280;52661;51.364;6.054;2023-01-28T05:53:41;102572.06;;;1.74;100.00
65880;BME280;52661;51.364;6.054;2023-01-28T05:56:07;102574.81;;;1.69;100.00
65880;BME280;52661;51.364;6.054;2023-01-28T05:58:32;102568.66;;;1.69;100.00
65880;BME280;52661;51.364;6.054;2023-01-28T06:00:58;102577.19;;;1.71;100.00
65880;BME280;52661;51.364;6.054;2023-01-28T06:03:23;102577.41;;;1.74;100.00
65880;BME280;52661;51.364;6.054;2023-01-28T06:05:49;102580.91;;;1.75;100.00
65880;BME280;52661;51.364;6.054;2023-01-28T06:08:14;102580.63;;;1.76;100.00
65880;BME280;52661;51.364;6.054;2023-01-28T06:10:40;102569.69;;;1.73;100.00
65880;BME280;52661;51.364;6.054;2023-01-28T06:13:05;102571.03;;;1.70;100.00
65880;BME280;52661;51.364;6.054;2023-01-28T06:15:31;102581.69;;;1.75;100.00
65880;BME280;52661;51.364;6.054;2023-01-28T06:17:56;102580.84;;;1.80;100.00
65880;BME280;52661;51.364;6.054;2023-01-28T06:20:21;102580.06;;;1.79;100.00
65880;BME280;52661;51.364;6.054;2023-01-28T06:22:52;102588.13;;;1.74;100.00
65880;BME280;52661;51.364;6.054;2023-01-28T06:25:18;102590.88;;;1.69;100.00
65880;BME280;52661;51.364;6.054;2023-01-28T06:27:43;102594.84;;;1.72;100.00
65880;BME280;52661;51.364;6.054;2023-01-28T06:30:09;102592.13;;;1.77;100.00
65880;BME280;52661;51.364;6.054;2023-01-28T06:32:35;102595.59;;;1.77;100.00
65880;BME280;52661;51.364;6.054;2023-01-28T06:35:00;102595.88;;;1.76;100.00
65880;BME280;52661;51.364;6.054;2023-01-28T06:37:26;102598.59;;;1.71;100.00
65880;BME280;52661;51.364;6.054;2023-01-28T06:39:51;102597.81;;;1.70;100.00
65880;BME280;52661;51.364;6.054;2023-01-28T06:42:17;102606.16;;;1.64;100.00
65880;BME280;52661;51.364;6.054;2023-01-28T06:44:42;102604.63;;;1.58;100.00
65880;BME280;52661;51.364;6.054;2023-01-28T06:47:07;102594.88;;;1.67;100.00
65880;BME280;52661;51.364;6.054;2023-01-28T06:49:35;102591.91;;;1.73;100.00
65880;BME280;52661;51.364;6.054;2023-01-28T06:52:01;102599.16;;;1.68;100.00
65880;BME280;52661;51.364;6.054;2023-01-28T06:54:26;102602.16;;;1.66;100.00
65880;BME280;52661;51.364;6.054;2023-01-28T06:56:51;102601.28;;;1.71;100.00
65880;BME280;52661;51.364;6.054;2023-01-28T06:59:17;102603.91;;;1.76;100.00
65880;BME280;52661;51.364;6.054;2023-01-28T07:01:42;102601.25;;;1.76;100.00
65880;BME280;52661;51.364;6.054;2023-01-28T07:04:07;102603.63;;;1.77;100.00
65880;BME280;52661;51.364;6.054;2023-01-28T07:06:33;102599.28;;;1.58;100.00
65880;BME280;52661;51.364;6.054;2023-01-28T07:08:58;102606.75;;;1.56;100.00
65880;BME280;52661;51.364;6.054;2023-01-28T07:11:23;102608.59;;;1.60;100.00
65880;BME280;52661;51.364;6.054;2023-01-28T07:13:49;102604.81;;;1.66;100.00
65880;BME280;52661;51.364;6.054;2023-01-28T07:16:14;102600.00;;;1.63;100.00
65880;BME280;52661;51.364;6.054;2023-01-28T07:18:40;102598.66;;;1.66;100.00
65880;BME280;52661;51.364;6.054;2023-01-28T07:21:05;102607.72;;;1.70;100.00
65880;BME280;52661;51.364;6.054;2023-01-28T07:23:30;102603.16;;;1.70;100.00
65880;BME280;52661;51.364;6.054;2023-01-28T07:26:02;102599.94;;;1.73;100.00
65880;BME280;52661;51.364;6.054;2023-01-28T07:28:28;102596.97;;;1.75;100.00
65880;BME280;52661;51.364;6.054;2023-01-28T07:30:54;102596.16;;;1.74;100.00
65880;BME280;52661;51.364;6.054;2023-01-28T07:33:19;102593.22;;;1.76;100.00
65880;BME280;52661;51.364;6.054;2023-01-28T07:35:45;102590.56;;;1.71;100.00
65880;BME280;52661;51.364;6.054;2023-01-28T07:38:11;102601.03;;;1.67;100.00
65880;BME280;52661;51.364;6.054;2023-01-28T07:40:36;102603.50;;;1.64;100.00
65880;BME280;52661;51.364;6.054;2023-01-28T07:43:02;102608.59;;;1.60;100.00
65880;BME280;52661;51.364;6.054;2023-01-28T07:45:27;102614.53;;;1.57;100.00
65880;BME280;52661;51.364;6.054;2023-01-28T07:47:56;102612.66;;;1.58;100.00
65880;BME280;52661;51.364;6.054;2023-01-28T07:50:22;102624.44;;;1.57;100.00
65880;BME280;52661;51.364;6.054;2023-01-28T07:52:47;102630.59;;;1.57;100.00
65880;BME280;52661;51.364;6.054;2023-01-28T07:55:13;102633.53;;;1.56;100.00
65880;BME280;52661;51.364;6.054;2023-01-28T07:57:52;102641.94;;;1.44;100.00
65880;BME280;52661;51.364;6.054;2023-01-28T08:00:19;102640.59;;;1.41;100.00
65880;BME280;52661;51.364;6.054;2023-01-28T08:02:44;102645.94;;;1.46;100.00
65880;BME280;52661;51.364;6.054;2023-01-28T08:05:17;102648.84;;;1.50;100.00
65880;BME280;52661;51.364;6.054;2023-01-28T08:07:43;102637.09;;;1.46;100.00
65880;BME280;52661;51.364;6.054;2023-01-28T08:10:10;102637.41;;;1.39;100.00
65880;BME280;52661;51.364;6.054;2023-01-28T08:12:36;102645.94;;;1.41;100.00
65880;BME280;52661;51.364;6.054;2023-01-28T08:15:01;102650.53;;;1.41;100.00
65880;BME280;52661;51.364;6.054;2023-01-28T08:17:29;102659.34;;;1.41;100.00
65880;BME280;52661;51.364;6.054;2023-01-28T08:19:55;102654.28;;;1.40;100.00
65880;BME280;52661;51.364;6.054;2023-01-28T08:22:24;102648.63;;;1.41;100.00
65880;BME280;52661;51.364;6.054;2023-01-28T08:24:49;102659.09;;;1.38;100.00
65880;BME280;52661;51.364;6.054;2023-01-28T08:27:14;102670.66;;;1.33;100.00
65880;BME280;52661;51.364;6.054;2023-01-28T08:29:40;102675.19;;;1.33;100.00
65880;BME280;52661;51.364;6.054;2023-01-28T08:32:05;102679.19;;;1.35;100.00
65880;BME280;52661;51.364;6.054;2023-01-28T08:34:30;102678.69;;;1.33;100.00
65880;BME280;52661;51.364;6.054;2023-01-28T08:36:55;102681.63;;;1.32;100.00
65880;BME280;52661;51.364;6.054;2023-01-28T08:39:21;102686.69;;;1.33;100.00
65880;BME280;52661;51.364;6.054;2023-01-28T08:41:46;102697.16;;;1.30;100.00
65880;BME280;52661;51.364;6.054;2023-01-28T08:44:11;102691.56;;;1.26;100.00
65880;BME280;52661;51.364;6.054;2023-01-28T08:46:37;102693.19;;;1.22;99.70
65880;BME280;52661;51.364;6.054;2023-01-28T08:49:02;102695.56;;;1.24;98.21
65880;BME280;52661;51.364;6.054;2023-01-28T08:51:27;102708.38;;;1.27;99.24
65880;BME280;52661;51.364;6.054;2023-01-28T08:53:52;102720.44;;;1.29;99.21
65880;BME280;52661;51.364;6.054;2023-01-28T08:56:18;102718.03;;;1.28;99.64
65880;BME280;52661;51.364;6.054;2023-01-28T08:58:43;102720.97;;;1.26;98.42
65880;BME280;52661;51.364;6.054;2023-01-28T09:01:09;102716.38;;;1.32;99.91
65880;BME280;52661;51.364;6.054;2023-01-28T09:03:34;102723.91;;;1.30;98.03
65880;BME280;52661;51.364;6.054;2023-01-28T09:06:03;102718.56;;;1.30;98.59
65880;BME280;52661;51.364;6.054;2023-01-28T09:08:29;102719.31;;;1.35;99.46
65880;BME280;52661;51.364;6.054;2023-01-28T09:10:55;102721.22;;;1.30;97.98
65880;BME280;52661;51.364;6.054;2023-01-28T09:13:21;102727.06;;;1.37;98.08
65880;BME280;52661;51.364;6.054;2023-01-28T09:15:47;102718.72;;;1.43;100.00
65880;BME280;52661;51.364;6.054;2023-01-28T09:18:12;102728.91;;;1.41;99.65
65880;BME280;52661;51.364;6.054;2023-01-28T09:20:38;102738.56;;;1.37;100.00
65880;BME280;52661;51.364;6.054;2023-01-28T09:23:03;102739.66;;;1.36;99.24
65880;BME280;52661;51.364;6.054;2023-01-28T09:25:29;102729.22;;;1.35;98.96
65880;BME280;52661;51.364;6.054;2023-01-28T09:27:55;102752.69;;;1.48;100.00
65880;BME280;52661;51.364;6.054;2023-01-28T09:30:21;102740.31;;;1.52;100.00
65880;BME280;52661;51.364;6.054;2023-01-28T09:32:50;102734.69;;;1.59;100.00
65880;BME280;52661;51.364;6.054;2023-01-28T09:35:16;102738.69;;;1.61;100.00
65880;BME280;52661;51.364;6.054;2023-01-28T09:37:42;102739.47;;;1.62;100.00
65880;BME280;52661;51.364;6.054;2023-01-28T09:40:13;102750.94;;;1.67;100.00
65880;BME280;52661;51.364;6.054;2023-01-28T09:43:11;102754.16;;;1.69;100.00
65880;BME280;52661;51.364;6.054;2023-01-28T09:45:45;102763.50;;;1.72;100.00
65880;BME280;52661;51.364;6.054;2023-01-28T09:48:23;102760.56;;;1.68;100.00
65880;BME280;52661;51.364;6.054;2023-01-28T09:50:54;102746.63;;;1.71;100.00
65880;BME280;52661;51.364;6.054;2023-01-28T09:53:36;102747.69;;;1.70;100.00
65880;BME280;52661;51.364;6.054;2023-01-28T09:56:08;102751.47;;;1.69;100.00
65880;BME280;52661;51.364;6.054;2023-01-28T09:58:35;102743.72;;;1.68;100.00
65880;BME280;52661;51.364;6.054;2023-01-28T10:01:26;102750.75;;;1.59;100.00
65880;BME280;52661;51.364;6.054;2023-01-28T10:14:23;102763.41;;;1.48;98.65
65880;BME280;52661;51.364;6.054;2023-01-28T10:19:47;102748.34;;;1.52;100.00
65880;BME280;52661;51.364;6.054;2023-01-28T10:22:21;102752.38;;;1.55;100.00
65880;BME280;52661;51.364;6.054;2023-01-28T10:25:02;102744.84;;;1.62;100.00
65880;BME280;52661;51.364;6.054;2023-01-28T10:27:32;102751.84;;;1.53;100.00
65880;BME280;52661;51.364;6.054;2023-01-28T10:29:59;102750.00;;;1.48;100.00
65880;BME280;52661;51.364;6.054;2023-01-28T10:32:37;102750.53;;;1.45;100.00
65880;BME280;52661;51.364;6.054;2023-01-28T10:35:07;102757.84;;;1.34;100.00
65880;BME280;52661;51.364;6.054;2023-01-28T10:37:34;102766.09;;;1.38;100.00
65880;BME280;52661;51.364;6.054;2023-01-28T10:40:01;102766.41;;;1.31;100.00
65880;BME280;52661;51.364;6.054;2023-01-28T10:42:30;102773.94;;;1.29;100.00
65880;BME280;52661;51.364;6.054;2023-01-28T10:45:14;102774.47;;;1.26;100.00
65880;BME280;52661;51.364;6.054;2023-01-28T10:48:20;102756.28;;;1.23;100.00
65880;BME280;52661;51.364;6.054;2023-01-28T10:50:52;102771.75;;;1.31;100.00
65880;BME280;52661;51.364;6.054;2023-01-28T10:53:18;102763.19;;;1.34;100.00
65880;BME280;52661;51.364;6.054;2023-01-28T10:55:48;102761.28;;;1.40;100.00
65880;BME280;52661;51.364;6.054;2023-01-28T10:58:24;102769.91;;;1.32;100.00
65880;BME280;52661;51.364;6.054;2023-01-28T11:01:25;102783.03;;;1.23;100.00
65880;BME280;52661;51.364;6.054;2023-01-28T11:03:53;102776.91;;;1.23;100.00
65880;BME280;52661;51.364;6.054;2023-01-28T11:06:24;102764.06;;;1.20;100.00
65880;BME280;52661;51.364;6.054;2023-01-28T11:08:50;102772.63;;;1.22;100.00
65880;BME280;52661;51.364;6.054;2023-01-28T11:11:15;102775.81;;;1.24;100.00
65880;BME280;52661;51.364;6.054;2023-01-28T11:13:50;102773.13;;;1.24;100.00
65880;BME280;52661;51.364;6.054;2023-01-28T11:16:17;102762.75;;;1.17;100.00
65880;BME280;52661;51.364;6.054;2023-01-28T11:18:56;102765.91;;;1.29;100.00
65880;BME280;52661;51.364;6.054;2023-01-28T11:21:27;102761.06;;;1.36;100.00
65880;BME280;52661;51.364;6.054;2023-01-28T11:26:24;102759.69;;;1.39;100.00
65880;BME280;52661;51.364;6.054;2023-01-28T11:28:51;102767.44;;;1.40;100.00
65880;BME280;52661;51.364;6.054;2023-01-28T11:31:18;102761.06;;;1.36;100.00
65880;BME280;52661;51.364;6.054;2023-01-28T11:34:01;102766.97;;;1.33;100.00
65880;BME280;52661;51.364;6.054;2023-01-28T11:36:31;102765.09;;;1.29;98.36
65880;BME280;52661;51.364;6.054;2023-01-28T11:38:57;102763.44;;;1.38;100.00
65880;BME280;52661;51.364;6.054;2023-01-28T11:43:54;102754.00;;;1.51;100.00
65880;BME280;52661;51.364;6.054;2023-01-28T11:51:40;102744.09;;;1.51;100.00
65880;BME280;52661;51.364;6.054;2023-01-28T12:02:37;102736.22;;;1.70;100.00
65880;BME280;52661;51.364;6.054;2023-01-28T12:08:14;102719.69;;;1.63;100.00
65880;BME280;52661;51.364;6.054;2023-01-28T12:16:06;102694.59;;;1.48;100.00
65880;BME280;52661;51.364;6.054;2023-01-28T12:18:42;102707.44;;;1.52;100.00
65880;BME280;52661;51.364;6.054;2023-01-28T12:43:09;102622.06;;;2.08;97.47
65880;BME280;52661;51.364;6.054;2023-01-28T12:45:39;102625.44;;;1.94;95.17
65880;BME280;52661;51.364;6.054;2023-01-28T12:48:09;102637.94;;;1.99;94.35
65880;BME280;52661;51.364;6.054;2023-01-28T12:50:46;102639.88;;;1.93;94.03
65880;BME280;52661;51.364;6.054;2023-01-28T12:56:17;102644.69;;;1.68;96.31
65880;BME280;52661;51.364;6.054;2023-01-28T12:58:54;102665.53;;;1.71;95.31
65880;BME280;52661;51.364;6.054;2023-01-28T13:01:36;102659.59;;;1.74;94.68
65880;BME280;52661;51.364;6.054;2023-01-28T13:04:15;102654.34;;;1.92;93.26
65880;BME280;52661;51.364;6.054;2023-01-28T13:06:46;102667.69;;;1.97;94.86
65880;BME280;52661;51.364;6.054;2023-01-28T13:09:23;102673.19;;;2.11;97.39
65880;BME280;52661;51.364;6.054;2023-01-28T13:11:51;102672.59;;;1.90;96.91
65880;BME280;52661;51.364;6.054;2023-01-28T13:14:27;102672.75;;;1.99;97.02
65880;BME280;52661;51.364;6.054;2023-01-28T13:16:53;102673.31;;;1.96;93.35
65880;BME280;52661;51.364;6.054;2023-01-28T13:21:44;102674.94;;;2.21;92.33
65880;BME280;52661;51.364;6.054;2023-01-28T13:26:52;102691.78;;;2.26;89.93
65880;BME280;52661;51.364;6.054;2023-01-28T13:31:51;102677.97;;;2.85;86.28
65880;BME280;52661;51.364;6.054;2023-01-28T13:34:34;102673.50;;;2.76;86.45
65880;BME280;52661;51.364;6.054;2023-01-28T13:37:14;102681.34;;;2.72;89.00
65880;BME280;52661;51.364;6.054;2023-01-28T13:39:47;102676.41;;;2.37;93.28
65880;BME280;52661;51.364;6.054;2023-01-28T13:42:23;102684.34;;;2.18;91.40
65880;BME280;52661;51.364;6.054;2023-01-28T13:44:49;102681.63;;;2.23;89.89
65880;BME280;52661;51.364;6.054;2023-01-28T13:47:24;102687.88;;;2.14;92.98
65880;BME280;52661;51.364;6.054;2023-01-28T13:50:00;102684.19;;;2.10;92.34
65880;BME280;52661;51.364;6.054;2023-01-28T13:52:30;102675.41;;;2.04;92.85
65880;BME280;52661;51.364;6.054;2023-01-28T13:55:25;102683.22;;;1.95;93.95
65880;BME280;52661;51.364;6.054;2023-01-28T13:58:24;102675.25;;;2.19;92.53
65880;BME280;52661;51.364;6.054;2023-01-28T14:03:56;102660.78;;;2.20;89.77
65880;BME280;52661;51.364;6.054;2023-01-28T14:09:01;102662.81;;;2.28;88.94
65880;BME280;52661;51.364;6.054;2023-01-28T14:11:52;102649.16;;;2.06;96.78
65880;BME280;52661;51.364;6.054;2023-01-28T14:16:57;102636.88;;;2.00;94.94
65880;BME280;52661;51.364;6.054;2023-01-28T14:19:31;102632.72;;;2.36;90.59
65880;BME280;52661;51.364;6.054;2023-01-28T14:21:58;102631.78;;;2.88;87.06
65880;BME280;52661;51.364;6.054;2023-01-28T14:24:24;102626.44;;;3.07;85.32
65880;BME280;52661;51.364;6.054;2023-01-28T14:26:58;102617.66;;;3.02;85.55
65880;BME280;52661;51.364;6.054;2023-01-28T14:29:44;102612.69;;;3.27;82.74
65880;BME280;52661;51.364;6.054;2023-01-28T14:32:15;102616.16;;;3.46;82.62
65880;BME280;52661;51.364;6.054;2023-01-28T14:34:42;102619.19;;;3.72;80.36
65880;BME280;52661;51.364;6.054;2023-01-28T14:37:14;102618.91;;;3.41;79.55
65880;BME280;52661;51.364;6.054;2023-01-28T14:39:47;102626.91;;;3.60;79.24
65880;BME280;52661;51.364;6.054;2023-01-28T14:42:45;102627.47;;;3.76;78.99
65880;BME280;52661;51.364;6.054;2023-01-28T14:47:55;102639.75;;;3.12;80.08
65880;BME280;52661;51.364;6.054;2023-01-28T14:50:51;102648.75;;;3.21;82.63
65880;BME280;52661;51.364;6.054;2023-01-28T14:53:32;102643.59;;;3.25;83.52